sensor_id;sensor_type;location;lat;lon;timestamp;pressure;altitude;pressure_sealevel;temperature
7882;BMP180;3986;41.884;23.466;2022-09-06T09:26:16;92566.00;;;32.50
7882;BMP180;3986;41.884;23.466;2022-09-06T09:29:02;92568.00;;;36.90
7882;BMP180;3986;41.884;23.466;2022-09-06T09:31:33;92561.00;;;32.60
7882;BMP180;3986;41.884;23.466;2022-09-06T09:34:00;92567.00;;;35.10
7882;BMP180;3986;41.884;23.466;2022-09-06T09:36:29;92570.00;;;39.20
7882;BMP180;3986;41.884;23.466;2022-09-06T09:38:56;92572.00;;;41.40
7882;BMP180;3986;41.884;23.466;2022-09-06T09:41:28;92562.00;;;42.80
7882;BMP180;3986;41.884;23.466;2022-09-06T09:43:57;92569.00;;;40.40
7882;BMP180;3986;41.884;23.466;2022-09-06T09:46:28;92566.00;;;39.70
7882;BMP180;3986;41.884;23.466;2022-09-06T09:49:08;92561.00;;;40.00
7882;BMP180;3986;41.884;23.466;2022-09-06T09:51:36;92559.00;;;41.60
7882;BMP180;3986;41.884;23.466;2022-09-06T09:54:06;92563.00;;;43.40
7882;BMP180;3986;41.884;23.466;2022-09-06T09:56:38;92561.00;;;44.60
7882;BMP180;3986;41.884;23.466;2022-09-06T09:59:18;92557.00;;;45.20
7882;BMP180;3986;41.884;23.466;2022-09-06T10:01:46;92563.00;;;45.80
7882;BMP180;3986;41.884;23.466;2022-09-06T10:04:17;92551.00;;;42.90
7882;BMP180;3986;41.884;23.466;2022-09-06T10:06:44;92552.00;;;42.60
7882;BMP180;3986;41.884;23.466;2022-09-06T10:09:14;92545.00;;;42.70
7882;BMP180;3986;41.884;23.466;2022-09-06T10:11:53;92543.00;;;42.30
7882;BMP180;3986;41.884;23.466;2022-09-06T10:14:31;92546.00;;;43.10
7882;BMP180;3986;41.884;23.466;2022-09-06T10:16:58;92543.00;;;43.10
7882;BMP180;3986;41.884;23.466;2022-09-06T10:19:40;92536.00;;;42.90
7882;BMP180;3986;41.884;23.466;2022-09-06T10:22:25;92537.00;;;43.40
7882;BMP180;3986;41.884;23.466;2022-09-06T10:25:15;92536.00;;;45.60
7882;BMP180;3986;41.884;23.466;2022-09-06T10:28:05;92534.00;;;45.00
7882;BMP180;3986;41.884;23.466;2022-09-06T10:30:40;92533.00;;;45.20
7882;BMP180;3986;41.884;23.466;2022-09-06T10:33:20;92535.00;;;37.40
7882;BMP180;3986;41.884;23.466;2022-09-06T10:35:48;92522.00;;;34.10
7882;BMP180;3986;41.884;23.466;2022-09-06T10:38:36;92521.00;;;34.70
7882;BMP180;3986;41.884;23.466;2022-09-06T10:41:19;92532.00;;;41.00
7882;BMP180;3986;41.884;23.466;2022-09-06T10:43:55;92531.00;;;40.10
7882;BMP180;3986;41.884;23.466;2022-09-06T10:46:25;92530.00;;;43.10
7882;BMP180;3986;41.884;23.466;2022-09-06T10:48:52;92525.00;;;37.70
7882;BMP180;3986;41.884;23.466;2022-09-06T10:51:28;92525.00;;;37.40
7882;BMP180;3986;41.884;23.466;2022-09-06T10:54:03;92513.00;;;39.40
7882;BMP180;3986;41.884;23.466;2022-09-06T10:56:36;92519.00;;;35.20
7882;BMP180;3986;41.884;23.466;2022-09-06T10:59:12;92530.00;;;42.20
7882;BMP180;3986;41.884;23.466;2022-09-06T11:01:51;92521.00;;;36.90
7882;BMP180;3986;41.884;23.466;2022-09-06T11:04:25;92519.00;;;37.00
7882;BMP180;3986;41.884;23.466;2022-09-06T11:06:58;92509.00;;;32.50
7882;BMP180;3986;41.884;23.466;2022-09-06T11:09:29;92510.00;;;32.60
7882;BMP180;3986;41.884;23.466;2022-09-06T11:12:05;92505.00;;;30.20
7882;BMP180;3986;41.884;23.466;2022-09-06T11:14:37;92432.00;;;28.10
7882;BMP180;3986;41.884;23.466;2022-09-06T11:17:09;92509.00;;;29.50
7882;BMP180;3986;41.884;23.466;2022-09-06T11:19:42;92461.00;;;29.80
7882;BMP180;3986;41.884;23.466;2022-09-06T11:28:19;92510.00;;;29.20
7882;BMP180;3986;41.884;23.466;2022-09-06T11:30:55;92505.00;;;29.30
7882;BMP180;3986;41.884;23.466;2022-09-06T11:33:24;92504.00;;;28.40
7882;BMP180;3986;41.884;23.466;2022-09-06T11:35:52;92494.00;;;28.90
7882;BMP180;3986;41.884;23.466;2022-09-06T11:38:22;92504.00;;;33.10
7882;BMP180;3986;41.884;23.466;2022-09-06T11:40:56;92496.00;;;34.70
7882;BMP180;3986;41.884;23.466;2022-09-06T11:43:54;92506.00;;;33.70
7882;BMP180;3986;41.884;23.466;2022-09-06T11:46:59;92495.00;;;33.30
7882;BMP180;3986;41.884;23.466;2022-09-06T11:49:35;92500.00;;;35.80
7882;BMP180;3986;41.884;23.466;2022-09-06T11:55:30;92490.00;;;36.00
7882;BMP180;3986;41.884;23.466;2022-09-06T11:57:59;92487.00;;;32.50
7882;BMP180;3986;41.884;23.466;2022-09-06T12:00:27;92490.00;;;32.00
7882;BMP180;3986;41.884;23.466;2022-09-06T12:02:55;92482.00;;;31.60
7882;BMP180;3986;41.884;23.466;2022-09-06T12:05:29;92480.00;;;29.70
7882;BMP180;3986;41.884;23.466;2022-09-06T12:08:29;92475.00;;;29.90
7882;BMP180;3986;41.884;23.466;2022-09-06T12:11:00;92429.00;;;29.50
7882;BMP180;3986;41.884;23.466;2022-09-06T12:13:58;92473.00;;;28.70
7882;BMP180;3986;41.884;23.466;2022-09-06T12:19:42;92464.00;;;28.30
7882;BMP180;3986;41.884;23.466;2022-09-06T12:25:16;92468.00;;;28.00
7882;BMP180;3986;41.884;23.466;2022-09-06T12:27:51;92467.00;;;28.30
7882;BMP180;3986;41.884;23.466;2022-09-06T12:30:32;92463.00;;;27.90
7882;BMP180;3986;41.884;23.466;2022-09-06T12:33:04;92471.00;;;27.20
7882;BMP180;3986;41.884;23.466;2022-09-06T12:35:34;92422.00;;;27.10
7882;BMP180;3986;41.884;23.466;2022-09-06T12:38:02;92445.00;;;27.20
7882;BMP180;3986;41.884;23.466;2022-09-06T12:40:30;92457.00;;;26.90
7882;BMP180;3986;41.884;23.466;2022-09-06T12:42:58;92464.00;;;26.90
7882;BMP180;3986;41.884;23.466;2022-09-06T12:45:25;92458.00;;;26.90
7882;BMP180;3986;41.884;23.466;2022-09-06T12:48:03;92449.00;;;26.40
7882;BMP180;3986;41.884;23.466;2022-09-06T12:50:30;92454.00;;;26.40
7882;BMP180;3986;41.884;23.466;2022-09-06T12:53:00;92454.00;;;26.10
7882;BMP180;3986;41.884;23.466;2022-09-06T12:55:29;92458.00;;;25.70
7882;BMP180;3986;41.884;23.466;2022-09-06T12:57:59;92462.00;;;25.60
7882;BMP180;3986;41.884;23.466;2022-09-06T13:00:30;92461.00;;;25.90
7882;BMP180;3986;41.884;23.466;2022-09-06T13:03:04;92456.00;;;26.30
7882;BMP180;3986;41.884;23.466;2022-09-06T13:05:34;92449.00;;;27.90
7882;BMP180;3986;41.884;23.466;2022-09-06T13:08:12;92453.00;;;29.70
7882;BMP180;3986;41.884;23.466;2022-09-06T13:10:41;92455.00;;;31.90
7882;BMP180;3986;41.884;23.466;2022-09-06T13:13:10;92462.00;;;31.80
7882;BMP180;3986;41.884;23.466;2022-09-06T13:15:38;92453.00;;;29.90
7882;BMP180;3986;41.884;23.466;2022-09-06T13:18:23;92445.00;;;28.90
7882;BMP180;3986;41.884;23.466;2022-09-06T13:21:02;92441.00;;;28.40
7882;BMP180;3986;41.884;23.466;2022-09-06T13:23:40;92445.00;;;27.70
7882;BMP180;3986;41.884;23.466;2022-09-06T13:26:08;92399.00;;;27.50
7882;BMP180;3986;41.884;23.466;2022-09-06T13:28:35;92449.00;;;27.20
7882;BMP180;3986;41.884;23.466;2022-09-06T13:31:07;92443.00;;;27.10
7882;BMP180;3986;41.884;23.466;2022-09-06T13:33:36;92445.00;;;27.10
7882;BMP180;3986;41.884;23.466;2022-09-06T13:36:06;92445.00;;;27.30
7882;BMP180;3986;41.884;23.466;2022-09-06T13:38:38;92441.00;;;27.40
7882;BMP180;3986;41.884;23.466;2022-09-06T13:41:10;92441.00;;;27.10
7882;BMP180;3986;41.884;23.466;2022-09-06T13:43:58;92449.00;;;26.50
7882;BMP180;3986;41.884;23.466;2022-09-06T13:46:26;92450.00;;;26.50
7882;BMP180;3986;41.884;23.466;2022-09-06T13:48:53;92434.00;;;26.30
7882;BMP180;3986;41.884;23.466;2022-09-06T13:51:20;92446.00;;;26.40
7882;BMP180;3986;41.884;23.466;2022-09-06T13:53:47;92450.00;;;26.50
7882;BMP180;3986;41.884;23.466;2022-09-06T13:56:15;92447.00;;;25.80
7882;BMP180;3986;41.884;23.466;2022-09-06T13:58:42;92428.00;;;25.80
7882;BMP180;3986;41.884;23.466;2022-09-06T14:01:10;92449.00;;;25.50
7882;BMP180;3986;41.884;23.466;2022-09-06T14:03:40;92427.00;;;25.50
7882;BMP180;3986;41.884;23.466;2022-09-06T14:06:08;92448.00;;;25.60
7882;BMP180;3986;41.884;23.466;2022-09-06T14:08:35;92441.00;;;25.10
7882;BMP180;3986;41.884;23.466;2022-09-06T14:11:04;92438.00;;;25.00
7882;BMP180;3986;41.884;23.466;2022-09-06T14:13:31;92433.00;;;25.10
7882;BMP180;3986;41.884;23.466;2022-09-06T14:15:58;92436.00;;;25.00
7882;BMP180;3986;41.884;23.466;2022-09-06T14:18:26;92429.00;;;24.90
7882;BMP180;3986;41.884;23.466;2022-09-06T14:20:54;92430.00;;;24.90
7882;BMP180;3986;41.884;23.466;2022-09-06T14:23:22;92425.00;;;24.60
7882;BMP180;3986;41.884;23.466;2022-09-06T14:25:54;92433.00;;;24.40
7882;BMP180;3986;41.884;23.466;2022-09-06T14:28:21;92426.00;;;24.40
7882;BMP180;3986;41.884;23.466;2022-09-06T14:30:48;92426.00;;;24.30
7882;BMP180;3986;41.884;23.466;2022-09-06T14:33:16;92426.00;;;24.60
7882;BMP180;3986;41.884;23.466;2022-09-06T14:35:45;92430.00;;;24.60
7882;BMP180;3986;41.884;23.466;2022-09-06T14:38:12;92375.00;;;24.70
7882;BMP180;3986;41.884;23.466;2022-09-06T14:40:39;92431.00;;;24.40
7882;BMP180;3986;41.884;23.466;2022-09-06T14:43:08;92424.00;;;24.30
7882;BMP180;3986;41.884;23.466;2022-09-06T14:45:35;92426.00;;;24.10
7882;BMP180;3986;41.884;23.466;2022-09-06T14:48:02;92415.00;;;24.10
7882;BMP180;3986;41.884;23.466;2022-09-06T14:50:30;92413.00;;;24.20
7882;BMP180;3986;41.884;23.466;2022-09-06T14:52:58;92420.00;;;24.20
7882;BMP180;3986;41.884;23.466;2022-09-06T14:55:25;92414.00;;;24.20
7882;BMP180;3986;41.884;23.466;2022-09-06T14:57:52;92409.00;;;24.10
7882;BMP180;3986;41.884;23.466;2022-09-06T15:00:19;92402.00;;;24.30
7882;BMP180;3986;41.884;23.466;2022-09-06T15:02:47;92397.00;;;24.50
7882;BMP180;3986;41.884;23.466;2022-09-06T15:05:14;92377.00;;;24.60
7882;BMP180;3986;41.884;23.466;2022-09-06T15:07:41;92401.00;;;23.90
7882;BMP180;3986;41.884;23.466;2022-09-06T15:10:09;92347.00;;;24.20
7882;BMP180;3986;41.884;23.466;2022-09-06T15:12:36;92410.00;;;24.20
7882;BMP180;3986;41.884;23.466;2022-09-06T15:15:04;92377.00;;;24.00
7882;BMP180;3986;41.884;23.466;2022-09-06T15:17:31;92399.00;;;24.10
7882;BMP180;3986;41.884;23.466;2022-09-06T15:19:59;92397.00;;;24.80
7882;BMP180;3986;41.884;23.466;2022-09-06T15:22:26;92406.00;;;24.20
7882;BMP180;3986;41.884;23.466;2022-09-06T15:24:53;92395.00;;;23.90
7882;BMP180;3986;41.884;23.466;2022-09-06T15:27:21;92399.00;;;23.60
7882;BMP180;3986;41.884;23.466;2022-09-06T15:29:48;92397.00;;;23.70
7882;BMP180;3986;41.884;23.466;2022-09-06T15:32:15;92406.00;;;24.10
7882;BMP180;3986;41.884;23.466;2022-09-06T15:34:42;92406.00;;;23.90
7882;BMP180;3986;41.884;23.466;2022-09-06T15:37:09;92402.00;;;23.60
7882;BMP180;3986;41.884;23.466;2022-09-06T15:39:35;92399.00;;;23.30
7882;BMP180;3986;41.884;23.466;2022-09-06T15:42:03;92410.00;;;23.80
7882;BMP180;3986;41.884;23.466;2022-09-06T15:44:31;92403.00;;;24.00
7882;BMP180;3986;41.884;23.466;2022-09-06T15:46:58;92362.00;;;24.00
7882;BMP180;3986;41.884;23.466;2022-09-06T15:49:27;92418.00;;;23.90
7882;BMP180;3986;41.884;23.466;2022-09-06T15:51:56;92406.00;;;23.50
7882;BMP180;3986;41.884;23.466;2022-09-06T15:54:23;92415.00;;;23.60
7882;BMP180;3986;41.884;23.466;2022-09-06T15:57:11;92416.00;;;23.70
7882;BMP180;3986;41.884;23.466;2022-09-06T15:59:39;92424.00;;;23.50
7882;BMP180;3986;41.884;23.466;2022-09-06T16:02:06;92415.00;;;23.30
7882;BMP180;3986;41.884;23.466;2022-09-06T16:04:33;92419.00;;;23.40
7882;BMP180;3986;41.884;23.466;2022-09-06T16:07:00;92415.00;;;23.40
7882;BMP180;3986;41.884;23.466;2022-09-06T16:09:27;92414.00;;;23.20
7882;BMP180;3986;41.884;23.466;2022-09-06T16:11:53;92407.00;;;23.00
7882;BMP180;3986;41.884;23.466;2022-09-06T16:14:20;92412.00;;;23.00
7882;BMP180;3986;41.884;23.466;2022-09-06T16:16:49;92415.00;;;22.90
7882;BMP180;3986;41.884;23.466;2022-09-06T16:19:16;92421.00;;;22.70
7882;BMP180;3986;41.884;23.466;2022-09-06T16:21:43;92407.00;;;22.70
7882;BMP180;3986;41.884;23.466;2022-09-06T16:24:12;92442.00;;;22.70
7882;BMP180;3986;41.884;23.466;2022-09-06T16:26:41;92408.00;;;22.50
7882;BMP180;3986;41.884;23.466;2022-09-06T16:29:09;92428.00;;;22.60
7882;BMP180;3986;41.884;23.466;2022-09-06T16:31:36;92425.00;;;22.40
7882;BMP180;3986;41.884;23.466;2022-09-06T16:34:05;92423.00;;;22.40
7882;BMP180;3986;41.884;23.466;2022-09-06T16:36:32;92423.00;;;22.20
7882;BMP180;3986;41.884;23.466;2022-09-06T16:38:59;92421.00;;;22.00
7882;BMP180;3986;41.884;23.466;2022-09-06T16:41:27;92426.00;;;22.10
7882;BMP180;3986;41.884;23.466;2022-09-06T16:43:55;92428.00;;;22.00
7882;BMP180;3986;41.884;23.466;2022-09-06T16:46:24;92425.00;;;21.60
7882;BMP180;3986;41.884;23.466;2022-09-06T16:48:54;92427.00;;;21.60
7882;BMP180;3986;41.884;23.466;2022-09-06T16:51:23;92429.00;;;21.80
7882;BMP180;3986;41.884;23.466;2022-09-06T16:53:52;92431.00;;;22.10
7882;BMP180;3986;41.884;23.466;2022-09-06T16:56:21;92438.00;;;22.00
7882;BMP180;3986;41.884;23.466;2022-09-06T16:58:50;92435.00;;;21.80
7882;BMP180;3986;41.884;23.466;2022-09-06T17:01:17;92429.00;;;21.90
7882;BMP180;3986;41.884;23.466;2022-09-06T17:03:45;92438.00;;;21.90
7882;BMP180;3986;41.884;23.466;2022-09-06T17:06:12;92433.00;;;21.60
7882;BMP180;3986;41.884;23.466;2022-09-06T17:08:41;92367.00;;;21.10
7882;BMP180;3986;41.884;23.466;2022-09-06T17:11:09;92452.00;;;21.20
7882;BMP180;3986;41.884;23.466;2022-09-06T17:13:36;92445.00;;;21.30
7882;BMP180;3986;41.884;23.466;2022-09-06T17:16:04;92452.00;;;21.30
7882;BMP180;3986;41.884;23.466;2022-09-06T17:18:48;92456.00;;;21.20
7882;BMP180;3986;41.884;23.466;2022-09-06T17:21:17;92459.00;;;21.10
7882;BMP180;3986;41.884;23.466;2022-09-06T17:23:45;92465.00;;;21.10
7882;BMP180;3986;41.884;23.466;2022-09-06T17:26:12;92464.00;;;20.40
7882;BMP180;3986;41.884;23.466;2022-09-06T17:28:39;92469.00;;;20.70
7882;BMP180;3986;41.884;23.466;2022-09-06T17:31:07;92484.00;;;20.50
7882;BMP180;3986;41.884;23.466;2022-09-06T17:33:34;92471.00;;;20.20
7882;BMP180;3986;41.884;23.466;2022-09-06T17:36:06;92482.00;;;20.20
7882;BMP180;3986;41.884;23.466;2022-09-06T17:38:34;92457.00;;;20.00
7882;BMP180;3986;41.884;23.466;2022-09-06T17:41:03;92493.00;;;20.20
7882;BMP180;3986;41.884;23.466;2022-09-06T17:43:30;92492.00;;;20.40
7882;BMP180;3986;41.884;23.466;2022-09-06T17:45:57;92488.00;;;19.80
7882;BMP180;3986;41.884;23.466;2022-09-06T17:48:26;92489.00;;;19.60
7882;BMP180;3986;41.884;23.466;2022-09-06T17:50:53;92498.00;;;19.60
7882;BMP180;3986;41.884;23.466;2022-09-06T17:53:21;92507.00;;;19.70
7882;BMP180;3986;41.884;23.466;2022-09-06T17:55:48;92511.00;;;19.90
7882;BMP180;3986;41.884;23.466;2022-09-06T17:58:17;92496.00;;;19.80
7882;BMP180;3986;41.884;23.466;2022-09-06T18:00:44;92515.00;;;19.70
7882;BMP180;3986;41.884;23.466;2022-09-06T18:03:11;92510.00;;;19.50
7882;BMP180;3986;41.884;23.466;2022-09-06T18:05:38;92513.00;;;19.40
7882;BMP180;3986;41.884;23.466;2022-09-06T18:08:05;92509.00;;;19.10
7882;BMP180;3986;41.884;23.466;2022-09-06T18:10:34;92514.00;;;19.10
7882;BMP180;3986;41.884;23.466;2022-09-06T18:13:02;92521.00;;;19.40
7882;BMP180;3986;41.884;23.466;2022-09-06T18:15:30;92528.00;;;19.60
7882;BMP180;3986;41.884;23.466;2022-09-06T18:17:57;92534.00;;;19.00
7882;BMP180;3986;41.884;23.466;2022-09-06T18:20:25;92531.00;;;18.60
7882;BMP180;3986;41.884;23.466;2022-09-06T18:22:52;92532.00;;;18.60
7882;BMP180;3986;41.884;23.466;2022-09-06T18:25:19;92538.00;;;19.20
7882;BMP180;3986;41.884;23.466;2022-09-06T18:27:46;92547.00;;;18.80
7882;BMP180;3986;41.884;23.466;2022-09-06T18:30:13;92525.00;;;18.90
7882;BMP180;3986;41.884;23.466;2022-09-06T18:32:41;92542.00;;;19.00
7882;BMP180;3986;41.884;23.466;2022-09-06T18:35:09;92548.00;;;19.20
7882;BMP180;3986;41.884;23.466;2022-09-06T18:37:36;92542.00;;;19.10
7882;BMP180;3986;41.884;23.466;2022-09-06T18:40:03;92557.00;;;18.70
7882;BMP180;3986;41.884;23.466;2022-09-06T18:42:30;92554.00;;;18.20
7882;BMP180;3986;41.884;23.466;2022-09-06T18:44:57;92554.00;;;18.60
7882;BMP180;3986;41.884;23.466;2022-09-06T18:47:24;92557.00;;;18.30
7882;BMP180;3986;41.884;23.466;2022-09-06T18:49:52;92555.00;;;18.10
7882;BMP180;3986;41.884;23.466;2022-09-06T18:52:19;92565.00;;;18.40
7882;BMP180;3986;41.884;23.466;2022-09-06T18:54:46;92540.00;;;18.20
7882;BMP180;3986;41.884;23.466;2022-09-06T18:57:14;92562.00;;;18.10
7882;BMP180;3986;41.884;23.466;2022-09-06T18:59:42;92552.00;;;18.40
7882;BMP180;3986;41.884;23.466;2022-09-06T19:02:09;92560.00;;;18.50
7882;BMP180;3986;41.884;23.466;2022-09-06T19:04:36;92563.00;;;17.60
7882;BMP180;3986;41.884;23.466;2022-09-06T19:07:04;92568.00;;;17.90
7882;BMP180;3986;41.884;23.466;2022-09-06T19:09:31;92557.00;;;17.60
7882;BMP180;3986;41.884;23.466;2022-09-06T19:11:58;92560.00;;;17.80
7882;BMP180;3986;41.884;23.466;2022-09-06T19:14:25;92564.00;;;17.70
7882;BMP180;3986;41.884;23.466;2022-09-06T19:16:51;92551.00;;;17.70
7882;BMP180;3986;41.884;23.466;2022-09-06T19:19:19;92558.00;;;17.60
7882;BMP180;3986;41.884;23.466;2022-09-06T19:21:48;92562.00;;;17.50
7882;BMP180;3986;41.884;23.466;2022-09-06T19:24:17;92564.00;;;17.40
7882;BMP180;3986;41.884;23.466;2022-09-06T19:26:47;92559.00;;;17.60
7882;BMP180;3986;41.884;23.466;2022-09-06T19:29:15;92563.00;;;18.00
7882;BMP180;3986;41.884;23.466;2022-09-06T19:31:43;92543.00;;;17.80
7882;BMP180;3986;41.884;23.466;2022-09-06T19:34:10;92556.00;;;17.70
7882;BMP180;3986;41.884;23.466;2022-09-06T19:36:40;92562.00;;;17.50
7882;BMP180;3986;41.884;23.466;2022-09-06T19:39:09;92556.00;;;16.90
7882;BMP180;3986;41.884;23.466;2022-09-06T19:41:40;92561.00;;;17.00
7882;BMP180;3986;41.884;23.466;2022-09-06T19:44:09;92554.00;;;17.30
7882;BMP180;3986;41.884;23.466;2022-09-06T19:46:37;92555.00;;;17.20
7882;BMP180;3986;41.884;23.466;2022-09-06T19:49:06;92549.00;;;16.90
7882;BMP180;3986;41.884;23.466;2022-09-06T19:51:33;92555.00;;;16.70
7882;BMP180;3986;41.884;23.466;2022-09-06T19:54:00;92553.00;;;16.60
7882;BMP180;3986;41.884;23.466;2022-09-06T19:56:29;92551.00;;;17.30
7882;BMP180;3986;41.884;23.466;2022-09-06T19:59:01;92543.00;;;17.60
7882;BMP180;3986;41.884;23.466;2022-09-06T20:01:29;92548.00;;;17.70
7882;BMP180;3986;41.884;23.466;2022-09-06T20:03:57;92520.00;;;17.10
7882;BMP180;3986;41.884;23.466;2022-09-06T20:06:24;92510.00;;;17.00
7882;BMP180;3986;41.884;23.466;2022-09-06T20:08:53;92549.00;;;16.70
7882;BMP180;3986;41.884;23.466;2022-09-06T20:11:22;92559.00;;;16.40
7882;BMP180;3986;41.884;23.466;2022-09-06T20:13:49;92560.00;;;16.20
7882;BMP180;3986;41.884;23.466;2022-09-06T20:16:18;92552.00;;;16.50
7882;BMP180;3986;41.884;23.466;2022-09-06T20:18:45;92551.00;;;16.80
7882;BMP180;3986;41.884;23.466;2022-09-06T20:21:12;92554.00;;;16.80
7882;BMP180;3986;41.884;23.466;2022-09-06T20:23:40;92549.00;;;16.30
7882;BMP180;3986;41.884;23.466;2022-09-06T20:26:09;92552.00;;;16.30
7882;BMP180;3986;41.884;23.466;2022-09-06T20:28:38;92557.00;;;16.50
7882;BMP180;3986;41.884;23.466;2022-09-06T20:31:06;92552.00;;;16.10
7882;BMP180;3986;41.884;23.466;2022-09-06T20:33:34;92555.00;;;16.00
7882;BMP180;3986;41.884;23.466;2022-09-06T20:36:04;92553.00;;;16.40
7882;BMP180;3986;41.884;23.466;2022-09-06T20:38:32;92540.00;;;16.10
7882;BMP180;3986;41.884;23.466;2022-09-06T20:41:00;92550.00;;;16.10
7882;BMP180;3986;41.884;23.466;2022-09-06T20:43:28;92544.00;;;15.80
7882;BMP180;3986;41.884;23.466;2022-09-06T20:46:08;92549.00;;;15.90
7882;BMP180;3986;41.884;23.466;2022-09-06T20:48:37;92517.00;;;16.30
7882;BMP180;3986;41.884;23.466;2022-09-06T20:51:06;92559.00;;;16.50
7882;BMP180;3986;41.884;23.466;2022-09-06T20:53:34;92548.00;;;16.50
7882;BMP180;3986;41.884;23.466;2022-09-06T20:56:06;92554.00;;;16.40
7882;BMP180;3986;41.884;23.466;2022-09-06T20:58:34;92542.00;;;15.80
7882;BMP180;3986;41.884;23.466;2022-09-06T21:01:05;92568.00;;;15.70
7882;BMP180;3986;41.884;23.466;2022-09-06T21:03:35;92558.00;;;15.50
7882;BMP180;3986;41.884;23.466;2022-09-06T21:06:05;92555.00;;;15.90
7882;BMP180;3986;41.884;23.466;2022-09-06T21:08:32;92564.00;;;15.90
7882;BMP180;3986;41.884;23.466;2022-09-06T21:10:59;92498.00;;;15.70
7882;BMP180;3986;41.884;23.466;2022-09-06T21:13:26;92556.00;;;15.50
7882;BMP180;3986;41.884;23.466;2022-09-06T21:15:54;92561.00;;;15.70
7882;BMP180;3986;41.884;23.466;2022-09-06T21:18:21;92557.00;;;15.80
7882;BMP180;3986;41.884;23.466;2022-09-06T21:20:52;92549.00;;;15.40
7882;BMP180;3986;41.884;23.466;2022-09-06T21:23:21;92550.00;;;15.30
7882;BMP180;3986;41.884;23.466;2022-09-06T21:25:52;92528.00;;;15.30
7882;BMP180;3986;41.884;23.466;2022-09-06T21:28:19;92556.00;;;15.40
7882;BMP180;3986;41.884;23.466;2022-09-06T21:30:46;92555.00;;;14.70
7882;BMP180;3986;41.884;23.466;2022-09-06T21:33:13;92563.00;;;14.80
7882;BMP180;3986;41.884;23.466;2022-09-06T21:35:39;92557.00;;;15.20
7882;BMP180;3986;41.884;23.466;2022-09-06T21:38:06;92555.00;;;15.10
7882;BMP180;3986;41.884;23.466;2022-09-06T21:40:35;92555.00;;;14.70
7882;BMP180;3986;41.884;23.466;2022-09-06T21:43:02;92554.00;;;14.90
7882;BMP180;3986;41.884;23.466;2022-09-06T21:45:29;92541.00;;;15.30
7882;BMP180;3986;41.884;23.466;2022-09-06T21:47:56;92553.00;;;15.10
7882;BMP180;3986;41.884;23.466;2022-09-06T21:50:23;92544.00;;;15.20
7882;BMP180;3986;41.884;23.466;2022-09-06T21:52:51;92540.00;;;15.10
7882;BMP180;3986;41.884;23.466;2022-09-06T21:55:18;92540.00;;;14.90
7882;BMP180;3986;41.884;23.466;2022-09-06T21:57:46;92533.00;;;14.90
7882;BMP180;3986;41.884;23.466;2022-09-06T22:00:13;92533.00;;;15.20
7882;BMP180;3986;41.884;23.466;2022-09-06T22:02:40;92533.00;;;14.30
7882;BMP180;3986;41.884;23.466;2022-09-06T22:05:08;92536.00;;;14.60
7882;BMP180;3986;41.884;23.466;2022-09-06T22:07:35;92535.00;;;14.80
7882;BMP180;3986;41.884;23.466;2022-09-06T22:10:02;92535.00;;;15.00
7882;BMP180;3986;41.884;23.466;2022-09-06T22:12:29;92538.00;;;15.30
7882;BMP180;3986;41.884;23.466;2022-09-06T22:14:58;92540.00;;;15.40
7882;BMP180;3986;41.884;23.466;2022-09-06T22:17:24;92538.00;;;15.50
7882;BMP180;3986;41.884;23.466;2022-09-06T22:19:51;92545.00;;;15.20
7882;BMP180;3986;41.884;23.466;2022-09-06T22:22:18;92553.00;;;15.40
7882;BMP180;3986;41.884;23.466;2022-09-06T22:24:45;92555.00;;;15.50
7882;BMP180;3986;41.884;23.466;2022-09-06T22:27:12;92549.00;;;15.40
7882;BMP180;3986;41.884;23.466;2022-09-06T22:29:39;92546.00;;;15.40
7882;BMP180;3986;41.884;23.466;2022-09-06T22:32:07;92538.00;;;14.50
7882;BMP180;3986;41.884;23.466;2022-09-06T22:34:34;92485.00;;;14.90
7882;BMP180;3986;41.884;23.466;2022-09-06T22:37:01;92522.00;;;14.90
7882;BMP180;3986;41.884;23.466;2022-09-06T22:39:28;92541.00;;;14.60
7882;BMP180;3986;41.884;23.466;2022-09-06T22:41:55;92541.00;;;14.40
7882;BMP180;3986;41.884;23.466;2022-09-06T22:44:25;92535.00;;;14.40
7882;BMP180;3986;41.884;23.466;2022-09-06T22:46:52;92546.00;;;14.30
7882;BMP180;3986;41.884;23.466;2022-09-06T22:49:20;92541.00;;;14.50
7882;BMP180;3986;41.884;23.466;2022-09-06T22:51:47;92552.00;;;14.30
7882;BMP180;3986;41.884;23.466;2022-09-06T22:54:14;92549.00;;;14.20
7882;BMP180;3986;41.884;23.466;2022-09-06T22:56:41;92538.00;;;14.20
7882;BMP180;3986;41.884;23.466;2022-09-06T22:59:08;92543.00;;;13.90
7882;BMP180;3986;41.884;23.466;2022-09-06T23:01:35;92536.00;;;13.90
7882;BMP180;3986;41.884;23.466;2022-09-06T23:04:03;92529.00;;;14.10
7882;BMP180;3986;41.884;23.466;2022-09-06T23:06:32;92542.00;;;14.30
7882;BMP180;3986;41.884;23.466;2022-09-06T23:08:59;92536.00;;;14.10
7882;BMP180;3986;41.884;23.466;2022-09-06T23:11:26;92552.00;;;14.30
7882;BMP180;3986;41.884;23.466;2022-09-06T23:13:54;92515.00;;;14.10
7882;BMP180;3986;41.884;23.466;2022-09-06T23:16:21;92539.00;;;13.60
7882;BMP180;3986;41.884;23.466;2022-09-06T23:18:48;92517.00;;;13.40
7882;BMP180;3986;41.884;23.466;2022-09-06T23:21:16;92536.00;;;13.50
7882;BMP180;3986;41.884;23.466;2022-09-06T23:23:45;92548.00;;;13.30
7882;BMP180;3986;41.884;23.466;2022-09-06T23:26:14;92529.00;;;13.50
7882;BMP180;3986;41.884;23.466;2022-09-06T23:28:41;92423.00;;;13.50
7882;BMP180;3986;41.884;23.466;2022-09-06T23:31:10;92527.00;;;14.00
7882;BMP180;3986;41.884;23.466;2022-09-06T23:33:37;92538.00;;;14.10
7882;BMP180;3986;41.884;23.466;2022-09-06T23:36:05;92533.00;;;14.20
7882;BMP180;3986;41.884;23.466;2022-09-06T23:38:33;92537.00;;;14.40
7882;BMP180;3986;41.884;23.466;2022-09-06T23:41:03;92526.00;;;13.80
7882;BMP180;3986;41.884;23.466;2022-09-06T23:43:30;92518.00;;;14.00
7882;BMP180;3986;41.884;23.466;2022-09-06T23:45:57;92521.00;;;14.00
7882;BMP180;3986;41.884;23.466;2022-09-06T23:48:24;92528.00;;;13.50
7882;BMP180;3986;41.884;23.466;2022-09-06T23:50:51;92532.00;;;13.80
7882;BMP180;3986;41.884;23.466;2022-09-06T23:53:18;92518.00;;;13.40
7882;BMP180;3986;41.884;23.466;2022-09-06T23:55:45;92528.00;;;13.40
7882;BMP180;3986;41.884;23.466;2022-09-06T23:58:13;92526.00;;;13.70
